createdAt,value
2019-03-23T00:02:26.596Z,30.50
2019-03-23T00:05:00.348Z,34.10
2019-03-23T00:07:34.014Z,30.97
2019-03-23T00:10:07.972Z,34.45
2019-03-23T00:12:41.895Z,32.25
2019-03-23T00:15:16.428Z,33.00
2019-03-23T00:17:50.163Z,33.60
2019-03-23T00:20:23.901Z,33.30
2019-03-23T00:22:57.594Z,31.48
2019-03-23T00:25:31.224Z,35.70
2019-03-23T00:28:04.960Z,36.73
2019-03-23T00:30:38.591Z,40.17
2019-03-23T00:33:12.321Z,29.48
2019-03-23T00:35:45.962Z,30.32
2019-03-23T00:38:19.617Z,30.40
2019-03-23T00:40:54.300Z,32.40
2019-03-23T00:43:27.922Z,28.95
2019-03-23T00:46:01.778Z,28.30
2019-03-23T00:48:35.417Z,28.62
2019-03-23T00:51:09.105Z,30.23
2019-03-23T00:53:42.786Z,29.60
2019-03-23T00:56:16.617Z,27.22
2019-03-23T00:58:50.454Z,26.23
2019-03-23T01:01:24.081Z,27.32
2019-03-23T01:03:57.756Z,32.23
2019-03-23T01:06:31.412Z,36.90
2019-03-23T01:09:07.528Z,35.15
2019-03-23T01:11:41.270Z,36.13
2019-03-23T01:14:14.870Z,36.40
2019-03-23T01:16:48.373Z,42.00
2019-03-23T01:19:21.983Z,40.75
2019-03-23T01:21:55.604Z,38.67
2019-03-23T01:24:30.229Z,39.27
2019-03-23T01:27:03.912Z,37.67
2019-03-23T01:29:37.446Z,37.42
2019-03-23T01:32:11.085Z,34.67
2019-03-23T01:34:44.668Z,33.90
2019-03-23T01:37:18.384Z,36.25
2019-03-23T01:39:51.983Z,34.27
2019-03-23T01:42:25.732Z,33.58
2019-03-23T01:44:59.334Z,29.15
2019-03-23T01:47:33.031Z,29.95
2019-03-23T01:50:07.492Z,27.87
2019-03-23T01:52:41.000Z,26.20
2019-03-23T01:55:14.645Z,27.77
2019-03-23T01:57:48.154Z,27.77
2019-03-23T02:00:21.762Z,29.90
2019-03-23T02:02:55.375Z,26.27
2019-03-23T02:05:29.040Z,25.00
2019-03-23T02:08:02.701Z,26.00
2019-03-23T02:10:36.262Z,27.27
2019-03-23T02:13:09.986Z,27.87
2019-03-23T02:15:43.674Z,30.37
2019-03-23T02:18:17.252Z,29.07
2019-03-23T02:20:50.956Z,32.10
2019-03-23T02:23:24.698Z,33.95
2019-03-23T02:25:58.295Z,32.53
2019-03-23T02:28:32.005Z,30.57
2019-03-23T02:31:07.315Z,31.07
2019-03-23T02:33:41.021Z,30.15
2019-03-23T02:36:14.736Z,32.23
2019-03-23T02:38:48.370Z,32.42
2019-03-23T02:41:21.911Z,33.10
2019-03-23T02:43:55.570Z,37.90
2019-03-23T02:46:29.361Z,35.50
2019-03-23T02:49:03.137Z,32.23
2019-03-23T02:51:39.606Z,33.30
2019-03-23T02:54:12.171Z,33.58
2019-03-23T02:56:46.087Z,32.95
2019-03-23T02:59:19.678Z,30.43
2019-03-23T03:01:53.324Z,31.77
2019-03-23T03:04:26.900Z,34.83
2019-03-23T03:07:00.590Z,32.35
2019-03-23T03:09:34.095Z,32.07
2019-03-23T03:12:07.840Z,31.85
2019-03-23T03:14:41.530Z,34.20
2019-03-23T03:17:15.112Z,33.08
2019-03-23T03:19:48.775Z,32.65
2019-03-23T03:22:22.451Z,38.67
2019-03-23T03:24:56.170Z,42.23
2019-03-23T03:27:29.783Z,40.03
2019-03-23T03:30:03.424Z,35.88
2019-03-23T03:32:38.011Z,37.53
2019-03-23T03:35:11.913Z,36.58
2019-03-23T03:37:55.694Z,33.93
2019-03-23T03:40:20.759Z,34.80
2019-03-23T03:42:54.384Z,36.33
2019-03-23T03:45:28.930Z,39.08
2019-03-23T03:48:02.514Z,40.95
2019-03-23T03:50:36.161Z,38.90
2019-03-23T03:53:09.810Z,39.40
2019-03-23T03:55:43.419Z,46.70
2019-03-23T03:58:16.961Z,41.37
2019-03-23T04:00:50.618Z,41.15
2019-03-23T04:03:24.239Z,44.33
2019-03-23T04:05:57.930Z,41.27
2019-03-23T04:08:31.596Z,41.18
2019-03-23T04:11:05.796Z,41.53
2019-03-23T04:13:39.463Z,41.58
2019-03-23T04:16:13.197Z,42.60
2019-03-23T04:18:46.849Z,44.93
2019-03-23T04:21:20.491Z,50.13
2019-03-23T04:23:54.155Z,51.63
2019-03-23T04:26:27.804Z,47.15
2019-03-23T04:29:01.520Z,52.08
2019-03-23T04:31:35.273Z,60.10
2019-03-23T04:34:08.932Z,57.70
2019-03-23T04:36:42.693Z,53.90
2019-03-23T04:39:16.348Z,51.43
2019-03-23T04:41:49.963Z,56.00
2019-03-23T04:44:23.600Z,56.43
2019-03-23T04:46:57.232Z,56.00
2019-03-23T04:49:30.902Z,59.40
2019-03-23T04:52:04.578Z,57.95
2019-03-23T04:54:39.014Z,59.88
2019-03-23T04:57:12.874Z,51.30
2019-03-23T04:59:46.507Z,48.55
2019-03-23T05:02:20.117Z,44.55
2019-03-23T05:04:53.965Z,42.73
2019-03-23T05:07:27.595Z,46.55
2019-03-23T05:10:01.172Z,49.15
2019-03-23T05:12:34.896Z,47.97
2019-03-23T05:15:10.104Z,43.45
2019-03-23T05:17:43.875Z,39.98
2019-03-23T05:20:29.425Z,40.50
2019-03-23T05:23:03.117Z,42.30
2019-03-23T05:25:36.869Z,50.70
2019-03-23T05:28:10.733Z,50.30
2019-03-23T05:30:44.430Z,50.83
2019-03-23T05:33:18.185Z,52.88
2019-03-23T05:35:52.021Z,54.18
2019-03-23T05:38:25.608Z,51.83
2019-03-23T05:40:59.348Z,71.37
2019-03-23T05:43:33.262Z,127.32
2019-03-23T05:46:06.910Z,90.47
2019-03-23T05:48:40.606Z,106.47
2019-03-23T05:51:15.954Z,110.32
2019-03-23T05:53:50.219Z,68.87
2019-03-23T05:56:24.024Z,73.57
2019-03-23T05:58:57.703Z,65.67
2019-03-23T06:01:31.537Z,72.63
2019-03-23T06:04:06.068Z,65.10
2019-03-23T06:06:39.789Z,58.92
2019-03-23T06:09:14.845Z,61.55
2019-03-23T06:11:48.953Z,55.43
2019-03-23T06:14:23.768Z,46.85
2019-03-23T06:16:57.490Z,47.17
2019-03-23T06:19:31.406Z,45.45
2019-03-23T06:22:06.663Z,35.25
2019-03-23T06:24:40.562Z,39.92
2019-03-23T06:27:14.280Z,37.23
2019-03-23T06:29:50.006Z,33.00
2019-03-23T06:32:24.507Z,32.53
2019-03-23T06:34:58.234Z,33.85
2019-03-23T06:37:32.884Z,31.23
2019-03-23T06:40:09.591Z,31.55
2019-03-23T06:42:43.330Z,29.80
2019-03-23T06:45:18.585Z,34.88
2019-03-23T06:47:52.234Z,31.30
2019-03-23T06:50:25.934Z,33.13
2019-03-23T06:52:59.596Z,33.80
2019-03-23T06:55:33.332Z,35.55
2019-03-23T06:58:07.064Z,34.40
2019-03-23T07:00:40.716Z,32.65
2019-03-23T07:03:14.295Z,33.02
2019-03-23T07:05:47.830Z,33.67
2019-03-23T07:08:31.498Z,34.23
2019-03-23T07:10:56.696Z,33.48
2019-03-23T07:13:30.353Z,35.52
2019-03-23T07:16:05.034Z,37.17
2019-03-23T07:18:38.658Z,35.70
2019-03-23T07:21:12.627Z,38.38
2019-03-23T07:23:46.300Z,36.90
2019-03-23T07:26:19.792Z,33.40
2019-03-23T07:28:53.442Z,34.00
2019-03-23T07:31:27.101Z,38.25
2019-03-23T07:34:00.660Z,37.15
2019-03-23T07:36:34.416Z,37.63
2019-03-23T07:39:09.536Z,37.58
2019-03-23T07:41:43.076Z,32.48
2019-03-23T07:44:16.663Z,38.15
2019-03-23T07:46:50.394Z,35.43
2019-03-23T07:49:25.819Z,33.15
2019-03-23T07:51:59.425Z,25.08
2019-03-23T07:54:33.260Z,26.50
2019-03-23T07:57:06.956Z,31.75
2019-03-23T07:59:40.906Z,30.37
2019-03-23T08:02:14.429Z,30.77
2019-03-23T08:04:48.021Z,33.65
2019-03-23T08:07:21.763Z,29.45
2019-03-23T08:09:56.451Z,35.35
2019-03-23T08:12:29.973Z,27.82
2019-03-23T08:15:03.570Z,31.52
2019-03-23T08:17:37.207Z,29.82
2019-03-23T08:20:10.883Z,35.17
2019-03-23T08:22:44.485Z,31.57
2019-03-23T08:25:18.140Z,32.17
2019-03-23T08:27:51.834Z,31.55
2019-03-23T08:30:25.461Z,29.75
2019-03-23T08:32:59.518Z,32.28
2019-03-23T08:35:38.163Z,30.80
2019-03-23T08:38:11.873Z,31.20
2019-03-23T08:40:45.506Z,31.65
2019-03-23T08:43:19.147Z,25.25
2019-03-23T08:45:52.809Z,24.70
2019-03-23T08:48:26.588Z,24.70
2019-03-23T08:51:00.195Z,26.50
2019-03-23T08:53:33.907Z,25.92
2019-03-23T08:56:07.492Z,25.72
2019-03-23T08:58:37.712Z,25.43
2019-03-23T09:01:11.377Z,24.72
2019-03-23T09:03:52.336Z,27.22
2019-03-23T09:06:20.296Z,25.60
2019-03-23T09:08:53.874Z,26.00
2019-03-23T09:11:27.450Z,29.05
2019-03-23T09:14:01.014Z,28.92
2019-03-23T09:16:34.706Z,30.15
2019-03-23T09:19:08.543Z,29.02
2019-03-23T09:21:42.287Z,26.93
2019-03-23T09:24:15.909Z,29.52
2019-03-23T09:26:50.522Z,25.32
2019-03-23T09:29:24.207Z,30.02
2019-03-23T09:31:57.810Z,26.60
2019-03-23T09:34:31.386Z,29.92
2019-03-23T09:37:05.102Z,33.02
2019-03-23T09:39:38.760Z,30.95
2019-03-23T09:42:12.338Z,31.20
2019-03-23T09:44:45.949Z,30.97
2019-03-23T09:47:19.563Z,31.40
2019-03-23T09:49:53.337Z,31.50
2019-03-23T09:52:26.921Z,31.23
2019-03-23T09:55:00.567Z,27.98
2019-03-23T09:57:34.152Z,28.00
2019-03-23T10:00:08.386Z,29.30
2019-03-23T10:02:42.183Z,29.20
2019-03-23T10:05:15.762Z,29.07
2019-03-23T10:07:49.425Z,24.10
2019-03-23T10:10:22.984Z,32.35
2019-03-23T10:12:56.626Z,27.07
2019-03-23T10:15:30.221Z,29.87
2019-03-23T10:18:03.817Z,29.67
2019-03-23T10:20:37.373Z,30.88
2019-03-23T10:23:11.081Z,30.95
2019-03-23T10:25:44.759Z,31.45
2019-03-23T10:28:18.370Z,30.72
2019-03-23T10:30:51.982Z,33.08
2019-03-23T10:33:25.632Z,30.37
2019-03-23T10:35:59.314Z,30.77
2019-03-23T10:38:32.937Z,27.95
2019-03-23T10:41:06.533Z,31.20
2019-03-23T10:43:40.088Z,28.23
2019-03-23T10:46:13.735Z,26.40
2019-03-23T10:48:47.315Z,25.30
2019-03-23T10:51:21.019Z,25.75
2019-03-23T10:53:54.720Z,26.30
2019-03-23T10:56:28.372Z,27.90
2019-03-23T10:59:01.911Z,29.18
2019-03-23T11:01:35.516Z,28.62
2019-03-23T11:04:09.146Z,27.45
2019-03-23T11:06:42.866Z,24.98
2019-03-23T11:09:16.631Z,24.07
2019-03-23T11:11:50.309Z,22.82
2019-03-23T11:14:23.816Z,26.87
2019-03-23T11:16:57.381Z,25.60
2019-03-23T11:19:30.970Z,25.85
2019-03-23T11:22:04.608Z,25.97
2019-03-23T11:24:38.320Z,22.20
2019-03-23T11:27:11.989Z,25.52
2019-03-23T11:29:46.760Z,25.48
2019-03-23T11:32:20.273Z,26.57
2019-03-23T11:34:55.777Z,26.62
2019-03-23T11:37:29.355Z,22.35
2019-03-23T11:40:03.125Z,24.60
2019-03-23T11:42:36.776Z,24.02
2019-03-23T11:45:10.556Z,23.57
2019-03-23T11:47:44.612Z,23.27
2019-03-23T11:50:18.299Z,19.00
2019-03-23T11:52:51.904Z,21.35
2019-03-23T11:55:25.608Z,21.45
2019-03-23T11:57:59.278Z,22.58
2019-03-23T12:00:32.870Z,21.48
2019-03-23T12:03:06.522Z,20.75
2019-03-23T12:05:40.202Z,22.67
2019-03-23T12:08:13.730Z,17.32
2019-03-23T12:10:47.240Z,23.07
2019-03-23T12:13:20.901Z,23.77
2019-03-23T12:15:54.399Z,21.12
2019-03-23T12:18:28.070Z,20.00
2019-03-23T12:21:01.737Z,18.15
2019-03-23T12:23:37.277Z,19.57
2019-03-23T12:26:10.848Z,20.55
2019-03-23T12:28:44.371Z,17.15
2019-03-23T12:31:18.103Z,20.45
2019-03-23T12:37:18.934Z,17.67
2019-03-23T12:39:52.713Z,18.62
2019-03-23T12:42:26.442Z,19.45
2019-03-23T12:45:00.301Z,19.55
2019-03-23T12:47:35.462Z,20.65
2019-03-23T12:50:10.261Z,15.00
2019-03-23T12:52:43.967Z,19.15
2019-03-23T12:55:17.567Z,19.52
2019-03-23T12:57:51.163Z,19.15
2019-03-23T13:00:24.893Z,16.67
2019-03-23T13:02:58.653Z,20.35
2019-03-23T13:05:32.381Z,20.10
2019-03-23T13:08:06.195Z,18.87
2019-03-23T13:10:40.036Z,17.98
2019-03-23T13:13:15.008Z,15.03
2019-03-23T13:15:48.946Z,13.43
2019-03-23T13:18:27.173Z,15.03
2019-03-23T13:20:58.018Z,14.03
2019-03-23T13:23:31.556Z,15.38
2019-03-23T13:26:05.209Z,16.15
2019-03-23T13:28:38.974Z,14.80
2019-03-23T13:31:12.623Z,17.12
2019-03-23T13:33:46.197Z,15.95
2019-03-23T13:36:19.879Z,16.40
2019-03-23T13:38:53.563Z,18.07
2019-03-23T13:41:27.216Z,15.80
2019-03-23T13:44:01.178Z,15.68
2019-03-23T13:46:34.871Z,15.80
2019-03-23T13:49:08.511Z,14.07
2019-03-23T13:51:43.669Z,13.70
2019-03-23T13:54:17.381Z,16.00
2019-03-23T13:56:51.070Z,16.60
2019-03-23T13:59:25.052Z,16.00
2019-03-23T14:01:58.831Z,14.63
2019-03-23T14:04:34.136Z,14.33
2019-03-23T14:07:07.848Z,15.75
2019-03-23T14:09:42.882Z,14.65
2019-03-23T14:12:16.994Z,14.43
2019-03-23T14:14:50.959Z,14.25
2019-03-23T14:17:24.690Z,13.60
2019-03-23T14:19:58.481Z,12.05
2019-03-23T14:22:32.594Z,12.10
2019-03-23T14:25:06.589Z,13.18
2019-03-23T14:27:40.256Z,11.95
2019-03-23T14:30:15.420Z,13.10
2019-03-23T14:32:49.101Z,13.30
2019-03-23T14:35:22.831Z,12.60
2019-03-23T14:37:56.582Z,12.37
2019-03-23T14:40:31.277Z,13.30
2019-03-23T14:43:04.931Z,10.65
2019-03-23T14:45:38.627Z,10.60
2019-03-23T14:48:12.372Z,10.68
2019-03-23T14:50:46.037Z,10.18
2019-03-23T14:53:19.694Z,10.90
2019-03-23T14:55:53.233Z,9.98
2019-03-23T14:58:26.833Z,10.75
2019-03-23T15:01:00.401Z,9.88
2019-03-23T15:03:35.076Z,8.03
2019-03-23T15:06:10.306Z,9.03
2019-03-23T15:08:48.087Z,7.97
2019-03-23T15:11:21.781Z,8.78
2019-03-23T15:13:55.479Z,8.68
2019-03-23T15:16:29.298Z,9.05
2019-03-23T15:19:02.924Z,8.05
2019-03-23T15:21:36.827Z,7.33
2019-03-23T15:24:11.065Z,6.72
2019-03-23T15:26:47.485Z,7.17
2019-03-23T15:29:21.027Z,7.00
2019-03-23T15:31:54.589Z,6.30
2019-03-23T15:34:28.146Z,6.58
2019-03-23T15:37:02.131Z,6.03
2019-03-23T15:39:38.335Z,6.67
2019-03-23T15:42:12.601Z,6.33
2019-03-23T15:44:50.295Z,6.72
2019-03-23T15:47:23.958Z,5.40
2019-03-23T15:50:05.829Z,7.15
2019-03-23T15:52:47.741Z,6.87
2019-03-23T16:31:20.368Z,8.08
2019-03-23T16:34:05.148Z,8.63
2019-03-23T16:36:42.301Z,13.13
2019-03-23T16:39:27.154Z,15.93
2019-03-23T16:42:11.185Z,19.35
2019-03-23T16:44:45.371Z,26.48
2019-03-23T16:47:26.880Z,32.98
2019-03-23T16:50:03.955Z,32.67
2019-03-23T16:52:41.744Z,35.83
2019-03-23T16:55:19.826Z,37.17
2019-03-23T16:58:03.724Z,34.20
2019-03-23T17:00:53.707Z,25.52
2019-03-23T17:03:52.461Z,30.68
2019-03-23T17:06:27.325Z,32.93
2019-03-23T17:09:08.176Z,34.83
2019-03-23T17:11:46.051Z,29.30
2019-03-23T17:14:20.467Z,41.10
2019-03-23T17:16:54.894Z,39.55
2019-03-23T17:19:29.769Z,35.90
2019-03-23T17:22:07.313Z,37.20
2019-03-23T17:24:40.957Z,31.70
2019-03-23T17:27:17.759Z,35.63
2019-03-23T17:29:51.601Z,32.65
2019-03-23T17:32:25.290Z,30.30
2019-03-23T17:34:59.126Z,28.62
2019-03-23T17:37:33.053Z,35.80
2019-03-23T17:40:07.347Z,40.03
2019-03-23T17:42:41.328Z,35.25
2019-03-23T17:45:15.524Z,34.27
2019-03-23T17:47:51.140Z,36.45
2019-03-23T17:50:24.952Z,38.65
2019-03-23T17:52:58.677Z,35.03
2019-03-23T17:55:32.631Z,41.80
2019-03-23T17:58:06.570Z,47.58
2019-03-23T18:00:40.793Z,42.48
2019-03-23T18:03:15.643Z,42.65
2019-03-23T18:05:49.989Z,47.27
2019-03-23T18:08:24.753Z,44.23
2019-03-23T18:11:02.160Z,41.63
2019-03-23T18:13:38.909Z,35.45
2019-03-23T18:16:13.052Z,39.38
2019-03-23T18:18:47.069Z,39.03
2019-03-23T18:21:22.602Z,41.80
2019-03-23T18:23:56.847Z,38.60
2019-03-23T18:26:31.200Z,34.90
2019-03-23T18:29:05.241Z,36.45
2019-03-23T18:31:38.963Z,34.73
2019-03-23T18:34:12.826Z,33.65
2019-03-23T18:36:47.042Z,31.68
2019-03-23T18:39:21.089Z,34.05
2019-03-23T18:41:55.277Z,29.63
2019-03-23T18:44:29.094Z,27.07
2019-03-23T18:47:03.292Z,24.80
2019-03-23T18:49:40.087Z,29.87
2019-03-23T18:52:14.980Z,27.27
2019-03-23T18:54:50.935Z,28.20
2019-03-23T18:57:24.731Z,26.30
2019-03-23T18:59:58.958Z,24.92
2019-03-23T19:02:33.264Z,27.62
2019-03-23T19:05:08.322Z,27.40
2019-03-23T19:07:42.463Z,19.95
2019-03-23T19:10:20.492Z,27.25
2019-03-23T19:12:54.548Z,25.68
2019-03-23T19:15:29.328Z,25.08
2019-03-23T19:18:06.420Z,27.58
2019-03-23T19:20:40.409Z,24.72
2019-03-23T19:23:15.386Z,25.37
2019-03-23T19:25:49.313Z,24.75
2019-03-23T19:28:23.663Z,21.97
2019-03-23T19:30:58.009Z,24.27
2019-03-23T19:33:32.921Z,24.00
2019-03-23T19:36:06.989Z,25.50
2019-03-23T19:38:40.960Z,21.25
2019-03-23T19:41:14.829Z,19.82
2019-03-23T19:43:51.813Z,18.27
2019-03-23T19:46:24.908Z,24.47
2019-03-23T19:48:58.807Z,20.90
2019-03-23T19:51:32.543Z,22.82
2019-03-23T19:54:07.368Z,24.45
2019-03-23T19:56:42.116Z,24.55
2019-03-23T19:59:15.710Z,24.95
2019-03-23T20:01:49.538Z,24.90
2019-03-23T20:04:23.713Z,25.27
2019-03-23T20:06:57.624Z,25.85
2019-03-23T20:09:34.924Z,25.40
2019-03-23T20:12:08.713Z,26.15
2019-03-23T20:14:42.582Z,26.82
2019-03-23T20:17:16.547Z,24.12
2019-03-23T20:19:51.601Z,23.27
2019-03-23T20:22:25.711Z,24.98
2019-03-23T20:24:59.729Z,26.37
2019-03-23T20:27:35.017Z,26.00
2019-03-23T20:30:12.965Z,28.90
2019-03-23T20:32:47.084Z,26.95
2019-03-23T20:35:20.900Z,28.60
2019-03-23T20:37:56.240Z,26.10
2019-03-23T20:40:30.111Z,25.48
2019-03-23T20:43:03.835Z,28.20
2019-03-23T20:45:37.709Z,27.25
2019-03-23T20:48:11.945Z,27.50
2019-03-23T20:50:46.127Z,21.10
2019-03-23T20:53:21.957Z,22.60
2019-03-23T20:55:55.638Z,26.23
2019-03-23T20:58:29.431Z,27.48
2019-03-23T21:01:03.249Z,25.65
2019-03-23T21:03:37.202Z,25.20
2019-03-23T21:06:12.582Z,22.60
2019-03-23T21:08:46.911Z,22.90
2019-03-23T21:11:20.698Z,22.90
2019-03-23T21:13:54.716Z,20.35
2019-03-23T21:16:28.703Z,19.48
2019-03-23T21:19:02.664Z,19.55
2019-03-23T21:21:36.442Z,19.40
2019-03-23T21:24:10.126Z,18.20
2019-03-23T21:26:44.380Z,17.82
2019-03-23T21:29:18.131Z,19.10
2019-03-23T21:31:51.766Z,17.27
2019-03-23T21:34:25.485Z,17.75
2019-03-23T21:36:59.139Z,16.87
2019-03-23T21:39:35.156Z,14.87
2019-03-23T21:42:08.923Z,15.28
2019-03-23T21:44:46.168Z,16.02
2019-03-23T21:47:19.948Z,15.20
2019-03-23T21:49:53.706Z,14.40
2019-03-23T21:52:27.594Z,14.15
2019-03-23T21:55:01.404Z,11.80
2019-03-23T21:57:35.263Z,14.98
2019-03-23T22:00:16.275Z,13.10
2019-03-23T22:02:50.310Z,14.18
2019-03-23T22:05:24.121Z,14.85
2019-03-23T22:07:57.948Z,13.90
2019-03-23T22:10:31.776Z,13.48
2019-03-23T22:13:05.719Z,13.72
2019-03-23T22:15:39.511Z,11.65
2019-03-23T22:18:13.279Z,12.93
2019-03-23T22:20:47.406Z,12.75
2019-03-23T22:23:21.067Z,13.18
2019-03-23T22:25:54.731Z,13.55
2019-03-23T22:28:28.517Z,13.88
2019-03-23T22:31:02.970Z,14.33
2019-03-23T22:33:36.760Z,12.63
2019-03-23T22:36:10.420Z,14.07
2019-03-23T22:38:48.651Z,13.32
2019-03-23T22:41:23.085Z,13.13
2019-03-23T22:43:58.070Z,11.93
2019-03-23T22:46:32.010Z,13.13
2019-03-23T22:49:06.230Z,13.65
2019-03-23T22:51:39.869Z,13.15
2019-03-23T22:54:13.733Z,13.90
2019-03-23T22:56:47.579Z,12.58
2019-03-23T22:59:21.316Z,11.95
2019-03-23T23:01:55.257Z,12.90
2019-03-23T23:04:28.950Z,12.63
2019-03-23T23:07:02.694Z,12.30
2019-03-23T23:09:37.591Z,12.25
2019-03-23T23:12:11.340Z,13.08
2019-03-23T23:14:48.998Z,12.63
2019-03-23T23:17:22.727Z,12.60
2019-03-23T23:19:56.488Z,11.83
2019-03-23T23:22:30.258Z,13.03
2019-03-23T23:25:04.525Z,13.08
2019-03-23T23:27:39.771Z,12.40
2019-03-23T23:30:14.232Z,12.47
2019-03-23T23:32:47.989Z,13.22
2019-03-23T23:35:21.753Z,13.18
2019-03-23T23:37:57.082Z,13.20
2019-03-23T23:40:30.778Z,12.37
2019-03-23T23:43:04.670Z,12.82
2019-03-23T23:45:38.541Z,12.90
2019-03-23T23:48:14.922Z,13.15
2019-03-23T23:50:51.279Z,12.50
2019-03-23T23:53:25.271Z,12.00
2019-03-23T23:55:58.925Z,12.40
2019-03-23T23:58:32.606Z,11.75
